sensor_id;sensor_type;location;lat;lon;timestamp;P1;durP1;ratioP1;P2;durP2;ratioP2
3343;SDS011;1685;53.104;8.228;2022-09-09T00:00:55;27.57;;;18.20;;
3343;SDS011;1685;53.104;8.228;2022-09-09T00:03:30;26.10;;;18.87;;
3343;SDS011;1685;53.104;8.228;2022-09-09T00:06:05;26.00;;;18.90;;
3343;SDS011;1685;53.104;8.228;2022-09-09T00:08:40;25.23;;;19.63;;
3343;SDS011;1685;53.104;8.228;2022-09-09T00:11:14;27.33;;;19.90;;
3343;SDS011;1685;53.104;8.228;2022-09-09T00:13:46;27.90;;;20.37;;
3343;SDS011;1685;53.104;8.228;2022-09-09T00:16:19;29.47;;;21.50;;
3343;SDS011;1685;53.104;8.228;2022-09-09T00:18:51;29.23;;;18.63;;
3343;SDS011;1685;53.104;8.228;2022-09-09T00:21:23;32.33;;;19.83;;
3343;SDS011;1685;53.104;8.228;2022-09-09T00:23:57;27.20;;;18.80;;
3343;SDS011;1685;53.104;8.228;2022-09-09T00:26:30;27.17;;;18.43;;
3343;SDS011;1685;53.104;8.228;2022-09-09T00:29:04;27.03;;;19.03;;
3343;SDS011;1685;53.104;8.228;2022-09-09T00:31:39;30.90;;;19.30;;
3343;SDS011;1685;53.104;8.228;2022-09-09T00:34:09;25.70;;;19.60;;
3343;SDS011;1685;53.104;8.228;2022-09-09T00:36:41;27.33;;;18.53;;
3343;SDS011;1685;53.104;8.228;2022-09-09T00:39:09;27.20;;;20.30;;
3343;SDS011;1685;53.104;8.228;2022-09-09T00:41:48;29.00;;;20.47;;
3343;SDS011;1685;53.104;8.228;2022-09-09T00:44:30;26.07;;;18.93;;
3343;SDS011;1685;53.104;8.228;2022-09-09T00:47:04;23.90;;;17.83;;
3343;SDS011;1685;53.104;8.228;2022-09-09T00:49:39;34.10;;;20.40;;
3343;SDS011;1685;53.104;8.228;2022-09-09T00:52:20;27.50;;;19.50;;
3343;SDS011;1685;53.104;8.228;2022-09-09T00:54:57;30.20;;;19.57;;
3343;SDS011;1685;53.104;8.228;2022-09-09T00:57:32;31.77;;;20.80;;
3343;SDS011;1685;53.104;8.228;2022-09-09T01:00:17;29.73;;;21.07;;
3343;SDS011;1685;53.104;8.228;2022-09-09T01:02:52;26.13;;;18.70;;
3343;SDS011;1685;53.104;8.228;2022-09-09T01:05:27;28.03;;;20.50;;
3343;SDS011;1685;53.104;8.228;2022-09-09T01:08:01;26.73;;;18.87;;
3343;SDS011;1685;53.104;8.228;2022-09-09T01:10:36;34.20;;;20.60;;
3343;SDS011;1685;53.104;8.228;2022-09-09T01:13:13;32.37;;;21.70;;
3343;SDS011;1685;53.104;8.228;2022-09-09T01:15:45;35.73;;;21.70;;
3343;SDS011;1685;53.104;8.228;2022-09-09T01:18:14;28.20;;;19.67;;
3343;SDS011;1685;53.104;8.228;2022-09-09T01:20:44;29.30;;;18.87;;
3343;SDS011;1685;53.104;8.228;2022-09-09T01:23:27;31.13;;;21.80;;
3343;SDS011;1685;53.104;8.228;2022-09-09T01:26:19;27.17;;;19.60;;
3343;SDS011;1685;53.104;8.228;2022-09-09T01:28:51;31.50;;;19.80;;
3343;SDS011;1685;53.104;8.228;2022-09-09T01:31:19;26.60;;;19.90;;
3343;SDS011;1685;53.104;8.228;2022-09-09T01:33:48;24.83;;;18.00;;
3343;SDS011;1685;53.104;8.228;2022-09-09T01:36:18;26.17;;;19.00;;
3343;SDS011;1685;53.104;8.228;2022-09-09T01:38:50;31.77;;;18.87;;
3343;SDS011;1685;53.104;8.228;2022-09-09T01:41:19;25.20;;;19.03;;
3343;SDS011;1685;53.104;8.228;2022-09-09T01:43:46;26.07;;;18.37;;
3343;SDS011;1685;53.104;8.228;2022-09-09T01:46:14;30.40;;;19.17;;
3343;SDS011;1685;53.104;8.228;2022-09-09T01:48:41;27.30;;;19.50;;
3343;SDS011;1685;53.104;8.228;2022-09-09T01:51:09;29.43;;;17.70;;
3343;SDS011;1685;53.104;8.228;2022-09-09T01:53:36;38.63;;;19.47;;
3343;SDS011;1685;53.104;8.228;2022-09-09T01:56:07;31.10;;;18.60;;
3343;SDS011;1685;53.104;8.228;2022-09-09T01:58:48;26.47;;;18.40;;
3343;SDS011;1685;53.104;8.228;2022-09-09T02:01:28;25.10;;;18.37;;
3343;SDS011;1685;53.104;8.228;2022-09-09T02:04:08;26.73;;;18.53;;
3343;SDS011;1685;53.104;8.228;2022-09-09T02:06:44;23.90;;;18.40;;
3343;SDS011;1685;53.104;8.228;2022-09-09T02:09:14;25.57;;;18.10;;
3343;SDS011;1685;53.104;8.228;2022-09-09T02:11:48;25.10;;;18.17;;
3343;SDS011;1685;53.104;8.228;2022-09-09T02:14:21;26.07;;;19.33;;
3343;SDS011;1685;53.104;8.228;2022-09-09T02:16:52;26.00;;;18.90;;
3343;SDS011;1685;53.104;8.228;2022-09-09T02:19:23;21.53;;;16.90;;
3343;SDS011;1685;53.104;8.228;2022-09-09T02:21:54;24.67;;;17.20;;
3343;SDS011;1685;53.104;8.228;2022-09-09T02:24:22;22.47;;;16.73;;
3343;SDS011;1685;53.104;8.228;2022-09-09T02:26:50;27.43;;;16.43;;
3343;SDS011;1685;53.104;8.228;2022-09-09T02:29:21;20.20;;;15.47;;
3343;SDS011;1685;53.104;8.228;2022-09-09T02:31:51;30.90;;;18.30;;
3343;SDS011;1685;53.104;8.228;2022-09-09T02:34:20;22.00;;;17.27;;
3343;SDS011;1685;53.104;8.228;2022-09-09T02:36:49;21.13;;;16.23;;
3343;SDS011;1685;53.104;8.228;2022-09-09T02:39:18;22.23;;;16.40;;
3343;SDS011;1685;53.104;8.228;2022-09-09T02:41:45;28.47;;;17.43;;
3343;SDS011;1685;53.104;8.228;2022-09-09T02:44:13;21.80;;;16.30;;
3343;SDS011;1685;53.104;8.228;2022-09-09T02:46:53;26.83;;;18.13;;
3343;SDS011;1685;53.104;8.228;2022-09-09T02:49:33;29.17;;;16.87;;
3343;SDS011;1685;53.104;8.228;2022-09-09T02:52:07;21.80;;;15.33;;
3343;SDS011;1685;53.104;8.228;2022-09-09T02:54:40;21.23;;;15.83;;
3343;SDS011;1685;53.104;8.228;2022-09-09T02:57:10;18.93;;;14.13;;
3343;SDS011;1685;53.104;8.228;2022-09-09T02:59:38;20.60;;;14.90;;
3343;SDS011;1685;53.104;8.228;2022-09-09T03:02:08;21.17;;;15.00;;
3343;SDS011;1685;53.104;8.228;2022-09-09T03:04:35;27.80;;;15.90;;
3343;SDS011;1685;53.104;8.228;2022-09-09T03:07:01;19.50;;;16.00;;
3343;SDS011;1685;53.104;8.228;2022-09-09T03:09:29;23.17;;;16.50;;
3343;SDS011;1685;53.104;8.228;2022-09-09T03:11:57;27.20;;;17.57;;
3343;SDS011;1685;53.104;8.228;2022-09-09T03:14:25;35.47;;;18.60;;
3343;SDS011;1685;53.104;8.228;2022-09-09T03:16:52;35.80;;;18.30;;
3343;SDS011;1685;53.104;8.228;2022-09-09T03:19:22;29.07;;;18.37;;
3343;SDS011;1685;53.104;8.228;2022-09-09T03:21:49;34.23;;;18.77;;
3343;SDS011;1685;53.104;8.228;2022-09-09T03:24:16;29.40;;;18.00;;
3343;SDS011;1685;53.104;8.228;2022-09-09T03:26:44;31.00;;;19.17;;
3343;SDS011;1685;53.104;8.228;2022-09-09T03:29:11;24.87;;;18.60;;
3343;SDS011;1685;53.104;8.228;2022-09-09T03:31:38;28.30;;;19.70;;
3343;SDS011;1685;53.104;8.228;2022-09-09T03:34:05;25.50;;;18.50;;
3343;SDS011;1685;53.104;8.228;2022-09-09T03:36:34;27.10;;;17.90;;
3343;SDS011;1685;53.104;8.228;2022-09-09T03:39:01;30.83;;;19.60;;
3343;SDS011;1685;53.104;8.228;2022-09-09T03:41:29;22.93;;;17.43;;
3343;SDS011;1685;53.104;8.228;2022-09-09T03:43:56;23.93;;;17.67;;
3343;SDS011;1685;53.104;8.228;2022-09-09T03:46:23;24.67;;;19.63;;
3343;SDS011;1685;53.104;8.228;2022-09-09T03:48:51;23.90;;;17.97;;
3343;SDS011;1685;53.104;8.228;2022-09-09T03:51:18;26.73;;;17.70;;
3343;SDS011;1685;53.104;8.228;2022-09-09T03:53:47;27.60;;;17.83;;
3343;SDS011;1685;53.104;8.228;2022-09-09T03:56:14;29.37;;;19.70;;
3343;SDS011;1685;53.104;8.228;2022-09-09T03:58:41;25.70;;;17.23;;
3343;SDS011;1685;53.104;8.228;2022-09-09T04:01:09;23.70;;;18.30;;
3343;SDS011;1685;53.104;8.228;2022-09-09T04:03:42;26.00;;;19.23;;
3343;SDS011;1685;53.104;8.228;2022-09-09T04:06:11;26.73;;;18.70;;
3343;SDS011;1685;53.104;8.228;2022-09-09T04:08:39;27.43;;;16.83;;
3343;SDS011;1685;53.104;8.228;2022-09-09T04:11:08;23.23;;;17.20;;
3343;SDS011;1685;53.104;8.228;2022-09-09T04:13:35;29.30;;;17.90;;
3343;SDS011;1685;53.104;8.228;2022-09-09T04:16:04;24.30;;;16.80;;
3343;SDS011;1685;53.104;8.228;2022-09-09T04:18:31;23.33;;;16.30;;
3343;SDS011;1685;53.104;8.228;2022-09-09T04:20:59;28.17;;;17.63;;
3343;SDS011;1685;53.104;8.228;2022-09-09T04:23:26;29.50;;;16.83;;
3343;SDS011;1685;53.104;8.228;2022-09-09T04:25:55;24.10;;;16.97;;
3343;SDS011;1685;53.104;8.228;2022-09-09T04:28:24;26.70;;;17.20;;
3343;SDS011;1685;53.104;8.228;2022-09-09T04:30:52;28.40;;;17.27;;
3343;SDS011;1685;53.104;8.228;2022-09-09T04:33:20;32.33;;;16.83;;
3343;SDS011;1685;53.104;8.228;2022-09-09T04:35:48;29.90;;;17.03;;
3343;SDS011;1685;53.104;8.228;2022-09-09T04:38:16;24.27;;;17.10;;
3343;SDS011;1685;53.104;8.228;2022-09-09T04:40:43;27.20;;;16.37;;
3343;SDS011;1685;53.104;8.228;2022-09-09T04:43:10;25.73;;;16.43;;
3343;SDS011;1685;53.104;8.228;2022-09-09T04:45:40;30.80;;;17.20;;
3343;SDS011;1685;53.104;8.228;2022-09-09T04:48:07;19.73;;;15.40;;
3343;SDS011;1685;53.104;8.228;2022-09-09T04:50:35;19.70;;;14.53;;
3343;SDS011;1685;53.104;8.228;2022-09-09T04:53:02;27.43;;;15.70;;
3343;SDS011;1685;53.104;8.228;2022-09-09T04:55:29;24.33;;;14.37;;
3343;SDS011;1685;53.104;8.228;2022-09-09T04:57:56;24.93;;;14.90;;
3343;SDS011;1685;53.104;8.228;2022-09-09T05:00:23;19.10;;;14.57;;
3343;SDS011;1685;53.104;8.228;2022-09-09T05:02:52;21.07;;;14.73;;
3343;SDS011;1685;53.104;8.228;2022-09-09T05:05:19;21.33;;;14.00;;
3343;SDS011;1685;53.104;8.228;2022-09-09T05:07:46;19.17;;;14.93;;
3343;SDS011;1685;53.104;8.228;2022-09-09T05:10:13;18.20;;;13.97;;
3343;SDS011;1685;53.104;8.228;2022-09-09T05:12:41;21.30;;;13.60;;
3343;SDS011;1685;53.104;8.228;2022-09-09T05:15:09;19.67;;;14.67;;
3343;SDS011;1685;53.104;8.228;2022-09-09T05:17:36;18.93;;;14.37;;
3343;SDS011;1685;53.104;8.228;2022-09-09T05:20:05;19.57;;;13.97;;
3343;SDS011;1685;53.104;8.228;2022-09-09T05:22:32;20.83;;;15.13;;
3343;SDS011;1685;53.104;8.228;2022-09-09T05:24:59;27.50;;;16.37;;
3343;SDS011;1685;53.104;8.228;2022-09-09T05:27:26;20.87;;;17.00;;
3343;SDS011;1685;53.104;8.228;2022-09-09T05:29:56;23.53;;;15.07;;
3343;SDS011;1685;53.104;8.228;2022-09-09T05:32:23;25.07;;;16.20;;
3343;SDS011;1685;53.104;8.228;2022-09-09T05:34:50;25.93;;;14.90;;
3343;SDS011;1685;53.104;8.228;2022-09-09T05:37:19;25.73;;;15.87;;
3343;SDS011;1685;53.104;8.228;2022-09-09T05:39:45;25.80;;;16.10;;
3343;SDS011;1685;53.104;8.228;2022-09-09T05:42:12;23.10;;;15.33;;
3343;SDS011;1685;53.104;8.228;2022-09-09T05:44:40;25.37;;;16.73;;
3343;SDS011;1685;53.104;8.228;2022-09-09T05:47:07;24.63;;;16.80;;
3343;SDS011;1685;53.104;8.228;2022-09-09T05:49:34;24.07;;;14.63;;
3343;SDS011;1685;53.104;8.228;2022-09-09T05:52:01;23.60;;;15.47;;
3343;SDS011;1685;53.104;8.228;2022-09-09T05:54:30;19.00;;;15.20;;
3343;SDS011;1685;53.104;8.228;2022-09-09T05:56:57;26.43;;;16.47;;
3343;SDS011;1685;53.104;8.228;2022-09-09T05:59:24;29.60;;;17.27;;
3343;SDS011;1685;53.104;8.228;2022-09-09T06:01:51;22.20;;;16.77;;
3343;SDS011;1685;53.104;8.228;2022-09-09T06:04:19;37.00;;;15.77;;
3343;SDS011;1685;53.104;8.228;2022-09-09T06:06:47;29.23;;;17.47;;
3343;SDS011;1685;53.104;8.228;2022-09-09T06:09:14;25.20;;;15.97;;
3343;SDS011;1685;53.104;8.228;2022-09-09T06:11:42;22.37;;;16.17;;
3343;SDS011;1685;53.104;8.228;2022-09-09T06:14:10;22.87;;;15.47;;
3343;SDS011;1685;53.104;8.228;2022-09-09T06:16:37;19.63;;;14.37;;
3343;SDS011;1685;53.104;8.228;2022-09-09T06:19:04;23.77;;;15.17;;
3343;SDS011;1685;53.104;8.228;2022-09-09T06:21:31;25.20;;;15.40;;
3343;SDS011;1685;53.104;8.228;2022-09-09T06:24:01;20.00;;;13.30;;
3343;SDS011;1685;53.104;8.228;2022-09-09T06:26:29;18.50;;;14.10;;
3343;SDS011;1685;53.104;8.228;2022-09-09T06:28:59;28.37;;;14.60;;
3343;SDS011;1685;53.104;8.228;2022-09-09T06:31:29;24.17;;;14.53;;
3343;SDS011;1685;53.104;8.228;2022-09-09T06:33:58;22.57;;;14.93;;
3343;SDS011;1685;53.104;8.228;2022-09-09T06:36:26;29.47;;;16.73;;
3343;SDS011;1685;53.104;8.228;2022-09-09T06:38:55;22.40;;;14.80;;
3343;SDS011;1685;53.104;8.228;2022-09-09T06:41:22;18.23;;;14.50;;
3343;SDS011;1685;53.104;8.228;2022-09-09T06:43:51;16.63;;;13.80;;
3343;SDS011;1685;53.104;8.228;2022-09-09T06:46:20;22.53;;;15.70;;
3343;SDS011;1685;53.104;8.228;2022-09-09T06:48:47;17.90;;;14.10;;
3343;SDS011;1685;53.104;8.228;2022-09-09T06:51:16;16.87;;;12.73;;
3343;SDS011;1685;53.104;8.228;2022-09-09T06:53:45;18.80;;;12.80;;
3343;SDS011;1685;53.104;8.228;2022-09-09T06:56:20;18.60;;;12.10;;
3343;SDS011;1685;53.104;8.228;2022-09-09T06:58:48;12.53;;;9.73;;
3343;SDS011;1685;53.104;8.228;2022-09-09T07:01:17;12.63;;;9.47;;
3343;SDS011;1685;53.104;8.228;2022-09-09T07:03:46;9.80;;;8.80;;
3343;SDS011;1685;53.104;8.228;2022-09-09T07:06:15;17.00;;;8.53;;
3343;SDS011;1685;53.104;8.228;2022-09-09T07:08:43;12.60;;;8.10;;
3343;SDS011;1685;53.104;8.228;2022-09-09T07:11:15;12.87;;;8.33;;
3343;SDS011;1685;53.104;8.228;2022-09-09T07:13:42;7.87;;;7.10;;
3343;SDS011;1685;53.104;8.228;2022-09-09T07:16:09;9.77;;;7.30;;
3343;SDS011;1685;53.104;8.228;2022-09-09T07:18:37;14.97;;;6.70;;
3343;SDS011;1685;53.104;8.228;2022-09-09T07:21:06;9.33;;;7.03;;
3343;SDS011;1685;53.104;8.228;2022-09-09T07:23:34;9.70;;;6.57;;
3343;SDS011;1685;53.104;8.228;2022-09-09T07:26:01;8.83;;;7.90;;
3343;SDS011;1685;53.104;8.228;2022-09-09T07:28:29;10.83;;;7.93;;
3343;SDS011;1685;53.104;8.228;2022-09-09T07:30:56;11.83;;;8.30;;
3343;SDS011;1685;53.104;8.228;2022-09-09T07:33:24;11.00;;;7.80;;
3343;SDS011;1685;53.104;8.228;2022-09-09T07:35:52;19.33;;;8.40;;
3343;SDS011;1685;53.104;8.228;2022-09-09T07:38:21;10.00;;;8.10;;
3343;SDS011;1685;53.104;8.228;2022-09-09T07:40:47;10.60;;;8.50;;
3343;SDS011;1685;53.104;8.228;2022-09-09T07:43:14;10.43;;;7.80;;
3343;SDS011;1685;53.104;8.228;2022-09-09T07:45:44;10.90;;;8.20;;
3343;SDS011;1685;53.104;8.228;2022-09-09T07:48:12;13.30;;;8.17;;
3343;SDS011;1685;53.104;8.228;2022-09-09T07:50:39;10.17;;;7.70;;
3343;SDS011;1685;53.104;8.228;2022-09-09T07:53:06;8.40;;;7.50;;
3343;SDS011;1685;53.104;8.228;2022-09-09T07:55:34;11.20;;;8.27;;
3343;SDS011;1685;53.104;8.228;2022-09-09T07:58:02;12.93;;;8.13;;
3343;SDS011;1685;53.104;8.228;2022-09-09T08:00:29;12.43;;;7.50;;
3343;SDS011;1685;53.104;8.228;2022-09-09T08:02:58;11.90;;;7.17;;
3343;SDS011;1685;53.104;8.228;2022-09-09T08:05:25;10.90;;;6.70;;
3343;SDS011;1685;53.104;8.228;2022-09-09T08:07:53;8.37;;;6.43;;
3343;SDS011;1685;53.104;8.228;2022-09-09T08:10:20;11.60;;;7.13;;
3343;SDS011;1685;53.104;8.228;2022-09-09T08:12:48;10.03;;;6.57;;
3343;SDS011;1685;53.104;8.228;2022-09-09T08:15:15;10.17;;;5.80;;
3343;SDS011;1685;53.104;8.228;2022-09-09T08:17:43;11.73;;;6.80;;
3343;SDS011;1685;53.104;8.228;2022-09-09T08:20:10;11.47;;;6.50;;
3343;SDS011;1685;53.104;8.228;2022-09-09T08:22:38;16.27;;;6.20;;
3343;SDS011;1685;53.104;8.228;2022-09-09T08:25:07;8.33;;;5.00;;
3343;SDS011;1685;53.104;8.228;2022-09-09T08:27:35;10.60;;;6.20;;
3343;SDS011;1685;53.104;8.228;2022-09-09T08:30:04;6.20;;;4.57;;
3343;SDS011;1685;53.104;8.228;2022-09-09T08:32:31;6.20;;;5.13;;
3343;SDS011;1685;53.104;8.228;2022-09-09T08:35:00;6.67;;;5.00;;
3343;SDS011;1685;53.104;8.228;2022-09-09T08:37:27;5.00;;;3.87;;
3343;SDS011;1685;53.104;8.228;2022-09-09T08:39:54;4.37;;;3.60;;
3343;SDS011;1685;53.104;8.228;2022-09-09T08:42:24;5.10;;;3.97;;
3343;SDS011;1685;53.104;8.228;2022-09-09T08:45:05;11.77;;;4.17;;
3343;SDS011;1685;53.104;8.228;2022-09-09T08:47:54;9.17;;;3.83;;
3343;SDS011;1685;53.104;8.228;2022-09-09T08:50:40;5.33;;;4.50;;
3343;SDS011;1685;53.104;8.228;2022-09-09T08:53:10;5.73;;;4.00;;
3343;SDS011;1685;53.104;8.228;2022-09-09T08:55:43;5.87;;;4.13;;
3343;SDS011;1685;53.104;8.228;2022-09-09T08:58:14;5.40;;;3.90;;
3343;SDS011;1685;53.104;8.228;2022-09-09T09:00:52;3.77;;;3.37;;
3343;SDS011;1685;53.104;8.228;2022-09-09T09:03:30;5.63;;;4.10;;
3343;SDS011;1685;53.104;8.228;2022-09-09T09:06:13;10.90;;;5.10;;
3343;SDS011;1685;53.104;8.228;2022-09-09T09:08:55;5.40;;;3.83;;
3343;SDS011;1685;53.104;8.228;2022-09-09T09:11:27;4.80;;;4.07;;
3343;SDS011;1685;53.104;8.228;2022-09-09T09:13:54;6.00;;;3.27;;
3343;SDS011;1685;53.104;8.228;2022-09-09T09:16:26;6.00;;;3.70;;
3343;SDS011;1685;53.104;8.228;2022-09-09T09:18:57;5.40;;;3.30;;
3343;SDS011;1685;53.104;8.228;2022-09-09T09:21:26;4.90;;;3.77;;
3343;SDS011;1685;53.104;8.228;2022-09-09T09:24:00;5.00;;;3.87;;
3343;SDS011;1685;53.104;8.228;2022-09-09T09:26:31;5.13;;;3.63;;
3343;SDS011;1685;53.104;8.228;2022-09-09T09:29:00;7.03;;;3.77;;
3343;SDS011;1685;53.104;8.228;2022-09-09T09:31:35;4.60;;;3.40;;
3343;SDS011;1685;53.104;8.228;2022-09-09T09:34:02;7.40;;;4.60;;
3343;SDS011;1685;53.104;8.228;2022-09-09T09:36:33;5.93;;;4.00;;
3343;SDS011;1685;53.104;8.228;2022-09-09T09:39:02;5.87;;;3.70;;
3343;SDS011;1685;53.104;8.228;2022-09-09T09:41:31;6.03;;;3.30;;
3343;SDS011;1685;53.104;8.228;2022-09-09T09:43:59;7.77;;;3.47;;
3343;SDS011;1685;53.104;8.228;2022-09-09T09:46:26;6.60;;;3.90;;
3343;SDS011;1685;53.104;8.228;2022-09-09T09:48:58;5.10;;;3.50;;
3343;SDS011;1685;53.104;8.228;2022-09-09T09:51:26;3.90;;;3.60;;
3343;SDS011;1685;53.104;8.228;2022-09-09T09:54:01;7.03;;;3.83;;
3343;SDS011;1685;53.104;8.228;2022-09-09T09:56:34;6.10;;;4.70;;
3343;SDS011;1685;53.104;8.228;2022-09-09T09:59:02;10.37;;;3.97;;
3343;SDS011;1685;53.104;8.228;2022-09-09T10:01:30;4.43;;;3.50;;
3343;SDS011;1685;53.104;8.228;2022-09-09T10:04:00;5.33;;;3.57;;
3343;SDS011;1685;53.104;8.228;2022-09-09T10:06:29;9.03;;;3.47;;
3343;SDS011;1685;53.104;8.228;2022-09-09T10:08:58;19.63;;;4.57;;
3343;SDS011;1685;53.104;8.228;2022-09-09T10:11:29;4.17;;;3.83;;
3343;SDS011;1685;53.104;8.228;2022-09-09T10:14:10;3.63;;;3.13;;
3343;SDS011;1685;53.104;8.228;2022-09-09T10:16:47;6.67;;;3.70;;
3343;SDS011;1685;53.104;8.228;2022-09-09T10:19:31;9.27;;;3.20;;
3343;SDS011;1685;53.104;8.228;2022-09-09T10:22:02;5.63;;;3.93;;
3343;SDS011;1685;53.104;8.228;2022-09-09T10:27:33;9.70;;;3.60;;
3343;SDS011;1685;53.104;8.228;2022-09-09T10:30:09;9.53;;;3.47;;
3343;SDS011;1685;53.104;8.228;2022-09-09T10:32:45;5.60;;;3.23;;
3343;SDS011;1685;53.104;8.228;2022-09-09T10:35:29;3.23;;;2.90;;
3343;SDS011;1685;53.104;8.228;2022-09-09T10:38:11;4.50;;;3.07;;
3343;SDS011;1685;53.104;8.228;2022-09-09T10:40:43;5.77;;;3.60;;
3343;SDS011;1685;53.104;8.228;2022-09-09T10:43:19;6.30;;;4.00;;
3343;SDS011;1685;53.104;8.228;2022-09-09T10:45:58;6.27;;;3.60;;
3343;SDS011;1685;53.104;8.228;2022-09-09T10:48:35;5.80;;;3.50;;
3343;SDS011;1685;53.104;8.228;2022-09-09T10:51:17;6.27;;;3.77;;
3343;SDS011;1685;53.104;8.228;2022-09-09T10:54:00;4.20;;;3.37;;
3343;SDS011;1685;53.104;8.228;2022-09-09T10:56:40;5.77;;;3.67;;
3343;SDS011;1685;53.104;8.228;2022-09-09T10:59:12;6.33;;;3.43;;
3343;SDS011;1685;53.104;8.228;2022-09-09T11:01:46;5.17;;;3.50;;
3343;SDS011;1685;53.104;8.228;2022-09-09T11:04:17;6.20;;;3.90;;
3343;SDS011;1685;53.104;8.228;2022-09-09T11:06:50;6.13;;;3.90;;
3343;SDS011;1685;53.104;8.228;2022-09-09T11:09:21;3.97;;;3.40;;
3343;SDS011;1685;53.104;8.228;2022-09-09T11:11:52;9.23;;;3.80;;
3343;SDS011;1685;53.104;8.228;2022-09-09T11:14:21;5.10;;;4.33;;
3343;SDS011;1685;53.104;8.228;2022-09-09T11:16:56;6.93;;;4.27;;
3343;SDS011;1685;53.104;8.228;2022-09-09T11:19:26;12.20;;;4.40;;
3343;SDS011;1685;53.104;8.228;2022-09-09T11:22:00;10.77;;;5.07;;
3343;SDS011;1685;53.104;8.228;2022-09-09T11:24:30;4.57;;;4.13;;
3343;SDS011;1685;53.104;8.228;2022-09-09T11:27:06;4.60;;;3.87;;
3343;SDS011;1685;53.104;8.228;2022-09-09T11:29:53;5.50;;;5.00;;
3343;SDS011;1685;53.104;8.228;2022-09-09T11:32:34;5.00;;;4.50;;
3343;SDS011;1685;53.104;8.228;2022-09-09T11:35:20;5.83;;;4.57;;
3343;SDS011;1685;53.104;8.228;2022-09-09T11:38:04;10.00;;;4.37;;
3343;SDS011;1685;53.104;8.228;2022-09-09T11:40:43;7.87;;;4.77;;
3343;SDS011;1685;53.104;8.228;2022-09-09T11:43:12;15.20;;;5.23;;
3343;SDS011;1685;53.104;8.228;2022-09-09T11:45:41;6.67;;;4.50;;
3343;SDS011;1685;53.104;8.228;2022-09-09T11:48:21;9.73;;;5.03;;
3343;SDS011;1685;53.104;8.228;2022-09-09T11:50:57;9.00;;;4.43;;
3343;SDS011;1685;53.104;8.228;2022-09-09T11:53:26;8.07;;;4.50;;
3343;SDS011;1685;53.104;8.228;2022-09-09T11:56:00;8.30;;;4.10;;
3343;SDS011;1685;53.104;8.228;2022-09-09T11:58:30;8.13;;;4.80;;
3343;SDS011;1685;53.104;8.228;2022-09-09T12:01:12;9.80;;;5.20;;
3343;SDS011;1685;53.104;8.228;2022-09-09T12:03:41;8.90;;;5.43;;
3343;SDS011;1685;53.104;8.228;2022-09-09T12:06:11;9.20;;;5.00;;
3343;SDS011;1685;53.104;8.228;2022-09-09T12:08:43;6.33;;;4.87;;
3343;SDS011;1685;53.104;8.228;2022-09-09T12:11:12;9.87;;;4.80;;
3343;SDS011;1685;53.104;8.228;2022-09-09T12:13:56;6.07;;;4.90;;
3343;SDS011;1685;53.104;8.228;2022-09-09T12:16:29;6.20;;;5.30;;
3343;SDS011;1685;53.104;8.228;2022-09-09T12:19:06;7.70;;;5.10;;
3343;SDS011;1685;53.104;8.228;2022-09-09T12:21:44;15.20;;;6.00;;
3343;SDS011;1685;53.104;8.228;2022-09-09T12:24:18;9.90;;;5.30;;
3343;SDS011;1685;53.104;8.228;2022-09-09T12:26:52;10.87;;;5.57;;
3343;SDS011;1685;53.104;8.228;2022-09-09T12:29:26;7.60;;;5.37;;
3343;SDS011;1685;53.104;8.228;2022-09-09T12:31:59;9.93;;;5.87;;
3343;SDS011;1685;53.104;8.228;2022-09-09T12:34:34;11.10;;;5.43;;
3343;SDS011;1685;53.104;8.228;2022-09-09T12:37:05;12.20;;;5.60;;
3343;SDS011;1685;53.104;8.228;2022-09-09T12:39:41;11.50;;;5.80;;
3343;SDS011;1685;53.104;8.228;2022-09-09T12:42:16;8.53;;;5.87;;
3343;SDS011;1685;53.104;8.228;2022-09-09T12:44:51;6.80;;;5.50;;
3343;SDS011;1685;53.104;8.228;2022-09-09T12:47:18;9.13;;;5.43;;
3343;SDS011;1685;53.104;8.228;2022-09-09T12:49:47;6.60;;;5.37;;
3343;SDS011;1685;53.104;8.228;2022-09-09T12:52:17;10.50;;;5.90;;
3343;SDS011;1685;53.104;8.228;2022-09-09T12:54:50;10.43;;;5.90;;
3343;SDS011;1685;53.104;8.228;2022-09-09T12:57:19;10.97;;;6.60;;
3343;SDS011;1685;53.104;8.228;2022-09-09T12:59:48;13.87;;;6.73;;
3343;SDS011;1685;53.104;8.228;2022-09-09T13:02:19;7.03;;;6.23;;
3343;SDS011;1685;53.104;8.228;2022-09-09T13:04:47;13.43;;;5.80;;
3343;SDS011;1685;53.104;8.228;2022-09-09T13:07:15;10.50;;;6.10;;
3343;SDS011;1685;53.104;8.228;2022-09-09T13:09:42;12.70;;;6.30;;
3343;SDS011;1685;53.104;8.228;2022-09-09T13:12:13;10.10;;;6.90;;
3343;SDS011;1685;53.104;8.228;2022-09-09T13:14:42;8.80;;;5.90;;
3343;SDS011;1685;53.104;8.228;2022-09-09T13:17:17;10.23;;;5.90;;
3343;SDS011;1685;53.104;8.228;2022-09-09T13:19:46;7.50;;;5.97;;
3343;SDS011;1685;53.104;8.228;2022-09-09T13:22:20;8.77;;;6.93;;
3343;SDS011;1685;53.104;8.228;2022-09-09T13:24:58;10.60;;;7.03;;
3343;SDS011;1685;53.104;8.228;2022-09-09T13:27:30;13.77;;;6.87;;
3343;SDS011;1685;53.104;8.228;2022-09-09T13:29:58;12.00;;;7.37;;
3343;SDS011;1685;53.104;8.228;2022-09-09T13:32:28;9.03;;;7.40;;
3343;SDS011;1685;53.104;8.228;2022-09-09T13:34:56;11.90;;;6.57;;
3343;SDS011;1685;53.104;8.228;2022-09-09T13:37:26;12.53;;;7.13;;
3343;SDS011;1685;53.104;8.228;2022-09-09T13:39:57;8.70;;;7.20;;
3343;SDS011;1685;53.104;8.228;2022-09-09T13:42:25;18.57;;;7.17;;
3343;SDS011;1685;53.104;8.228;2022-09-09T13:44:55;12.70;;;6.73;;
3343;SDS011;1685;53.104;8.228;2022-09-09T13:47:27;12.10;;;7.33;;
3343;SDS011;1685;53.104;8.228;2022-09-09T13:49:56;10.10;;;6.47;;
3343;SDS011;1685;53.104;8.228;2022-09-09T13:52:23;8.50;;;6.50;;
3343;SDS011;1685;53.104;8.228;2022-09-09T13:54:51;14.10;;;5.50;;
3343;SDS011;1685;53.104;8.228;2022-09-09T13:57:20;19.07;;;4.40;;
3343;SDS011;1685;53.104;8.228;2022-09-09T13:59:49;9.17;;;4.40;;
3343;SDS011;1685;53.104;8.228;2022-09-09T14:02:18;4.13;;;3.57;;
3343;SDS011;1685;53.104;8.228;2022-09-09T14:04:46;7.43;;;3.70;;
3343;SDS011;1685;53.104;8.228;2022-09-09T14:07:16;5.57;;;4.10;;
3343;SDS011;1685;53.104;8.228;2022-09-09T14:09:44;4.77;;;3.90;;
3343;SDS011;1685;53.104;8.228;2022-09-09T14:12:14;7.93;;;4.47;;
3343;SDS011;1685;53.104;8.228;2022-09-09T14:14:43;6.27;;;3.40;;
3343;SDS011;1685;53.104;8.228;2022-09-09T14:17:10;4.17;;;3.97;;
3343;SDS011;1685;53.104;8.228;2022-09-09T14:19:38;5.33;;;3.40;;
3343;SDS011;1685;53.104;8.228;2022-09-09T14:22:05;6.97;;;4.20;;
3343;SDS011;1685;53.104;8.228;2022-09-09T14:24:32;6.23;;;4.23;;
3343;SDS011;1685;53.104;8.228;2022-09-09T14:27:00;4.77;;;4.37;;
3343;SDS011;1685;53.104;8.228;2022-09-09T14:29:27;6.67;;;4.20;;
3343;SDS011;1685;53.104;8.228;2022-09-09T14:31:54;4.80;;;3.97;;
3343;SDS011;1685;53.104;8.228;2022-09-09T14:34:21;4.60;;;4.07;;
3343;SDS011;1685;53.104;8.228;2022-09-09T14:36:49;8.40;;;4.33;;
3343;SDS011;1685;53.104;8.228;2022-09-09T14:39:16;5.60;;;4.60;;
3343;SDS011;1685;53.104;8.228;2022-09-09T14:41:43;6.67;;;5.37;;
3343;SDS011;1685;53.104;8.228;2022-09-09T14:44:10;5.33;;;4.80;;
3343;SDS011;1685;53.104;8.228;2022-09-09T14:46:37;10.63;;;4.60;;
3343;SDS011;1685;53.104;8.228;2022-09-09T14:49:04;13.80;;;4.03;;
3343;SDS011;1685;53.104;8.228;2022-09-09T14:51:31;5.67;;;3.70;;
3343;SDS011;1685;53.104;8.228;2022-09-09T14:54:00;6.40;;;4.20;;
3343;SDS011;1685;53.104;8.228;2022-09-09T14:56:29;11.00;;;4.30;;
3343;SDS011;1685;53.104;8.228;2022-09-09T14:58:57;7.30;;;4.53;;
3343;SDS011;1685;53.104;8.228;2022-09-09T15:01:25;4.70;;;4.23;;
3343;SDS011;1685;53.104;8.228;2022-09-09T15:03:54;7.33;;;4.47;;
3343;SDS011;1685;53.104;8.228;2022-09-09T15:06:22;11.13;;;4.50;;
3343;SDS011;1685;53.104;8.228;2022-09-09T15:08:50;5.40;;;4.07;;
3343;SDS011;1685;53.104;8.228;2022-09-09T15:11:20;13.23;;;4.87;;
3343;SDS011;1685;53.104;8.228;2022-09-09T15:13:47;12.93;;;4.30;;
3343;SDS011;1685;53.104;8.228;2022-09-09T15:16:14;6.13;;;4.47;;
3343;SDS011;1685;53.104;8.228;2022-09-09T15:18:42;4.53;;;4.13;;
3343;SDS011;1685;53.104;8.228;2022-09-09T15:21:11;4.70;;;3.50;;
3343;SDS011;1685;53.104;8.228;2022-09-09T15:23:40;6.37;;;3.20;;